Time;durP1;ratioP1;P1;durP2;ratioP2;P2;SDS_P1;SDS_P2;PMS_P1;PMS_P2;Temp;Humidity;BMP_temperature;BMP_pressure;BME280_temperature;BME280_humidity;BME280_pressure;Samples;Min_cycle;Max_cycle;Signal;HPM_P1;HPM_P2
2023/04/06 00:00:01;;;;;;;11.43;6.80;;;;;;;7.44;26.04;101426.28;5075773;28;20406;-69
2023/04/06 00:02:36;;;;;;;10.30;6.43;;;;;;;7.40;26.27;101432.03;5061063;28;20113;-68
2023/04/06 00:05:06;;;;;;;9.07;6.50;;;;;;;7.34;26.33;101433.31;5064030;28;20032;-68
2023/04/06 00:07:35;;;;;;;9.55;6.55;;;;;;;7.30;26.49;101422.72;5058210;28;20048;-69
2023/04/06 00:10:03;;;;;;;10.85;7.25;;;;;;;7.27;26.37;101425.66;5065056;28;20123;-69
2023/04/06 00:12:31;;;;;;;10.73;6.63;;;;;;;7.21;26.09;101421.47;5051029;28;20172;-69
2023/04/06 00:15:01;;;;;;;10.00;6.63;;;;;;;7.15;26.21;101422.75;5062086;28;20045;-69
2023/04/06 00:17:29;;;;;;;9.27;6.57;;;;;;;7.11;26.26;101421.16;5087574;28;20055;-68
2023/04/06 00:19:57;;;;;;;9.70;6.75;;;;;;;7.06;26.62;101412.44;5091321;28;20046;-69
2023/04/06 00:22:26;;;;;;;10.05;6.82;;;;;;;7.04;26.31;101422.53;5092777;28;20040;-69
2023/04/06 00:24:54;;;;;;;9.20;6.90;;;;;;;6.97;26.34;101423.03;5090305;28;20488;-69
2023/04/06 00:27:22;;;;;;;9.00;6.28;;;;;;;6.93;26.57;101413.31;5064675;28;20064;-68
2023/04/06 00:29:50;;;;;;;9.98;6.70;;;;;;;6.90;26.72;101417.09;5065334;28;20040;-68
2023/04/06 00:32:18;;;;;;;8.73;6.80;;;;;;;6.86;26.31;101411.97;5054737;28;20041;-69
2023/04/06 00:34:46;;;;;;;11.63;6.95;;;;;;;6.84;26.33;101413.91;5045423;28;20045;-69
2023/04/06 00:37:14;;;;;;;8.68;6.43;;;;;;;6.80;26.48;101414.09;5040650;28;20063;-69
2023/04/06 00:39:43;;;;;;;9.93;6.82;;;;;;;6.78;26.92;101405.16;5060633;28;20064;-69
2023/04/06 00:42:13;;;;;;;9.75;7.05;;;;;;;6.75;26.82;101407.19;5068758;28;20062;-69
2023/04/06 00:44:42;;;;;;;9.02;6.47;;;;;;;6.70;26.95;101407.44;5078994;28;20550;-69
2023/04/06 00:47:10;;;;;;;10.07;6.93;;;;;;;6.67;26.98;101407.66;5079727;28;20047;-68
2023/04/06 00:49:38;;;;;;;12.35;7.55;;;;;;;6.63;26.65;101405.19;5087832;28;20036;-69
2023/04/06 00:52:06;;;;;;;10.30;7.00;;;;;;;6.58;26.83;101399.19;5076432;28;20495;-68
2023/04/06 00:54:34;;;;;;;9.75;7.22;;;;;;;6.55;26.94;101397.53;5063123;28;20098;-69
2023/04/06 00:57:04;;;;;;;11.00;6.68;;;;;;;6.52;27.34;101385.97;5059066;28;20534;-69
2023/04/06 00:59:33;;;;;;;10.70;6.90;;;;;;;6.48;27.34;101381.69;5070102;28;20049;-68
2023/04/06 01:02:02;;;;;;;10.43;6.70;;;;;;;6.44;27.30;101384.63;5059164;28;20044;-69
2023/04/06 01:04:39;;;;;;;10.63;6.88;;;;;;;6.39;27.35;101384.00;5079839;28;20052;-69
2023/04/06 01:07:13;;;;;;;10.73;6.93;;;;;;;6.35;27.38;101379.75;5072320;28;20046;-68
2023/04/06 01:09:50;;;;;;;9.73;6.97;;;;;;;6.32;27.21;101374.47;5060764;28;20047;-68
2023/04/06 01:12:24;;;;;;;9.75;6.72;;;;;;;6.29;27.28;101374.66;5044875;28;20130;-68
2023/04/06 01:14:52;;;;;;;11.93;7.07;;;;;;;6.25;27.36;101372.25;5063010;28;20039;-70
2023/04/06 01:17:20;;;;;;;9.55;6.97;;;;;;;6.21;27.58;101371.53;5046111;28;20056;-69
2023/04/06 01:19:51;;;;;;;9.55;6.90;;;;;;;6.19;27.68;101375.34;5058311;28;20051;-68
2023/04/06 01:22:26;;;;;;;9.93;7.03;;;;;;;6.16;27.78;101370.97;5047604;28;20039;-68
2023/04/06 01:25:00;;;;;;;9.80;6.95;;;;;;;6.12;27.57;101373.97;5061212;28;20048;-68
2023/04/06 01:27:42;;;;;;;11.00;6.68;;;;;;;6.07;27.88;101372.41;5087068;28;20406;-68
2023/04/06 01:30:13;;;;;;;10.30;7.15;;;;;;;6.05;27.73;101368.00;5107841;27;20104;-68
2023/04/06 01:32:54;;;;;;;11.07;6.97;;;;;;;6.00;27.86;101360.16;5091078;28;20039;-70
2023/04/06 01:35:36;;;;;;;9.73;6.60;;;;;;;5.97;27.85;101360.31;5085132;28;20131;-68
2023/04/06 01:38:15;;;;;;;11.18;6.70;;;;;;;5.98;28.16;101359.38;5083335;28;20035;-68
2023/04/06 01:40:44;;;;;;;10.20;6.97;;;;;;;5.97;28.09;101364.88;5086661;27;20626;-68
2023/04/06 01:43:12;;;;;;;11.88;7.03;;;;;;;5.95;28.37;101355.97;5093440;28;20077;-68
2023/04/06 01:46:03;;;;;;;10.20;6.93;;;;;;;5.91;28.27;101357.09;5090671;27;20091;-68
2023/04/06 01:48:36;;;;;;;10.07;6.93;;;;;;;5.87;28.33;101350.13;5092478;27;20039;-68
2023/04/06 01:51:14;;;;;;;11.13;7.35;;;;;;;5.86;28.14;101351.97;5092337;27;20380;-69
2023/04/06 01:53:55;;;;;;;11.85;7.20;;;;;;;5.85;28.43;101349.34;5084584;28;20040;-68
2023/04/06 01:56:29;;;;;;;9.18;6.72;;;;;;;5.82;28.31;101353.09;5085860;27;20418;-69
2023/04/06 01:59:08;;;;;;;10.40;6.97;;;;;;;5.81;27.99;101351.34;5102878;27;20083;-68
2023/04/06 02:01:41;;;;;;;10.25;6.97;;;;;;;5.78;28.21;101351.56;5083483;28;20058;-69
2023/04/06 02:04:09;;;;;;;10.80;7.10;;;;;;;5.78;28.44;101351.56;5090344;28;20043;-69
2023/04/06 02:06:37;;;;;;;9.77;6.97;;;;;;;5.77;28.54;101347.09;5067297;28;20048;-69
2023/04/06 02:09:09;;;;;;;10.07;6.95;;;;;;;5.77;28.42;101348.94;5074393;28;20410;-69
2023/04/06 02:11:37;;;;;;;11.30;7.30;;;;;;;5.74;28.32;101341.81;5074042;28;20047;-68
2023/04/06 02:14:06;;;;;;;9.60;6.72;;;;;;;5.75;28.60;101349.00;5068767;28;20068;-68
2023/04/06 02:16:39;;;;;;;12.23;7.40;;;;;;;5.72;28.69;101346.47;5080959;28;20048;-68
2023/04/06 02:19:07;;;;;;;11.18;7.30;;;;;;;5.71;28.40;101341.16;5085580;28;20039;-68
2023/04/06 02:21:36;;;;;;;12.30;7.88;;;;;;;5.69;28.87;101343.94;5083039;27;20036;-68
2023/04/06 02:24:04;;;;;;;10.73;6.55;;;;;;;5.67;28.79;101341.31;5079953;28;20051;-68
2023/04/06 02:26:33;;;;;;;12.20;7.55;;;;;;;5.67;28.99;101343.16;5099133;27;20040;-68
2023/04/06 02:29:01;;;;;;;10.43;7.13;;;;;;;5.64;28.76;101340.63;5088279;28;20039;-68
2023/04/06 02:31:29;;;;;;;10.60;7.53;;;;;;;5.62;28.72;101348.84;5097544;28;20048;-69
2023/04/06 02:33:58;;;;;;;10.25;7.25;;;;;;;5.60;28.68;101330.91;5104278;27;20147;-69
2023/04/06 02:36:26;;;;;;;10.20;7.07;;;;;;;5.58;28.47;101331.00;5067570;28;20046;-69
2023/04/06 02:38:54;;;;;;;11.48;6.82;;;;;;;5.56;28.68;101332.06;5094404;28;20087;-69
2023/04/06 02:41:22;;;;;;;11.35;6.97;;;;;;;5.52;28.97;101331.38;5083527;28;20044;-69
2023/04/06 02:43:52;;;;;;;11.75;7.45;;;;;;;5.52;29.30;101333.22;5084067;28;20071;-68
2023/04/06 02:46:30;;;;;;;10.98;6.75;;;;;;;5.49;28.77;101327.94;5081445;28;20043;-68
2023/04/06 02:49:00;;;;;;;9.88;6.95;;;;;;;5.48;29.25;101329.78;5098848;28;20403;-68
2023/04/06 02:51:30;;;;;;;10.02;6.43;;;;;;;5.48;29.19;101328.91;5087563;28;20574;-69
2023/04/06 02:54:07;;;;;;;10.30;6.53;;;;;;;5.47;29.00;101329.88;5088576;27;20039;-68
2023/04/06 02:56:35;;;;;;;11.27;6.60;;;;;;;5.48;28.97;101327.06;5103714;27;20510;-68
2023/04/06 02:59:05;;;;;;;9.05;6.75;;;;;;;5.49;29.39;101325.25;5084016;28;20081;-69
2023/04/06 03:01:34;;;;;;;10.95;6.88;;;;;;;5.49;29.35;101322.53;5080731;28;20043;-68
2023/04/06 03:04:05;;;;;;;10.50;6.97;;;;;;;5.48;28.96;101327.06;5082133;28;20372;-71
2023/04/06 03:06:33;;;;;;;10.63;6.75;;;;;;;5.50;29.20;101324.28;5069860;28;20140;-69
2023/04/06 03:09:11;;;;;;;9.52;6.70;;;;;;;5.50;29.46;101324.28;5076381;28;20119;-69
2023/04/06 03:11:42;;;;;;;10.45;6.50;;;;;;;5.49;29.06;101328.81;5097223;28;20450;-69
2023/04/06 03:14:11;;;;;;;10.00;6.57;;;;;;;5.50;29.07;101325.16;5085911;28;20463;-69
2023/04/06 03:16:39;;;;;;;11.68;7.43;;;;;;;5.48;29.28;101329.78;5091001;28;20058;-69
2023/04/06 03:19:07;;;;;;;11.25;7.53;;;;;;;5.46;29.47;101323.56;5084096;28;20089;-69
2023/04/06 03:21:37;;;;;;;11.57;7.43;;;;;;;5.44;29.57;101317.38;5087565;28;20640;-69
2023/04/06 03:24:06;;;;;;;9.70;6.65;;;;;;;5.44;29.22;101319.22;5093485;28;20213;-69
2023/04/06 03:26:35;;;;;;;10.07;6.55;;;;;;;5.40;29.39;101309.50;5089088;28;20047;-69
2023/04/06 03:29:06;;;;;;;9.63;7.35;;;;;;;5.36;29.61;101316.06;5073838;28;20051;-69
2023/04/06 03:31:36;;;;;;;10.10;6.63;;;;;;;5.34;29.55;101316.16;5076917;28;20079;-69
2023/04/06 03:34:27;;;;;;;9.20;6.68;;;;;;;5.27;29.31;101321.09;5114690;27;20051;-69
2023/04/06 03:36:55;;;;;;;8.73;6.10;;;;;;;5.25;29.44;101319.41;5089893;28;20075;-69
2023/04/06 03:39:37;;;;;;;8.57;6.30;;;;;;;5.22;29.24;101323.16;5105497;27;20043;-69
2023/04/06 03:42:05;;;;;;;10.38;6.47;;;;;;;5.20;29.51;101314.25;5090469;28;20036;-69
2023/04/06 03:44:36;;;;;;;11.02;7.40;;;;;;;5.18;29.77;101316.19;5091237;28;20044;-69
2023/04/06 03:47:06;;;;;;;9.30;6.28;;;;;;;5.17;29.76;101318.94;5092090;28;20425;-69
2023/04/06 03:49:34;;;;;;;10.80;6.57;;;;;;;5.13;29.61;101311.97;5085528;28;20418;-69
2023/04/06 03:52:02;;;;;;;9.93;6.60;;;;;;;5.11;29.78;101314.75;5091765;28;20059;-68
2023/04/06 03:54:30;;;;;;;12.10;7.30;;;;;;;5.07;29.91;101313.16;5098123;27;20035;-68
2023/04/06 03:56:58;;;;;;;10.77;7.45;;;;;;;5.04;30.07;101304.34;5103163;28;20463;-69
2023/04/06 03:59:27;;;;;;;10.60;6.95;;;;;;;5.01;29.86;101309.94;5085947;28;20498;-69
2023/04/06 04:01:55;;;;;;;12.55;7.40;;;;;;;4.98;30.05;101307.38;5089845;28;20063;-68
2023/04/06 04:04:29;;;;;;;10.32;7.13;;;;;;;4.96;30.03;101304.78;5091300;23;20052;-70
2023/04/06 04:06:58;;;;;;;9.68;6.45;;;;;;;4.90;29.62;101308.72;5022681;28;20048;-68
2023/04/06 04:09:26;;;;;;;10.30;6.47;;;;;;;4.89;29.85;101316.91;5029231;28;20047;-69
2023/04/06 04:11:56;;;;;;;9.63;6.90;;;;;;;4.86;30.02;101312.56;5034760;28;20450;-70
2023/04/06 04:14:25;;;;;;;10.23;6.95;;;;;;;4.83;29.98;101314.56;5049895;28;20079;-70
2023/04/06 04:16:53;;;;;;;10.77;6.95;;;;;;;4.81;29.89;101314.66;5051790;28;20051;-70
2023/04/06 04:19:21;;;;;;;9.07;6.65;;;;;;;4.78;29.94;101309.41;5049171;28;20143;-72
2023/04/06 04:21:52;;;;;;;9.20;6.45;;;;;;;4.78;30.34;101313.97;5063304;28;20515;-70
2023/04/06 04:24:29;;;;;;;9.57;7.30;;;;;;;4.72;30.10;101312.44;5063863;28;20075;-70
2023/04/06 04:26:57;;;;;;;10.50;6.85;;;;;;;4.71;30.15;101307.13;5080524;28;20044;-70
2023/04/06 04:29:26;;;;;;;9.13;6.20;;;;;;;4.69;30.04;101315.34;5068333;28;20038;-70
2023/04/06 04:31:55;;;;;;;11.13;6.40;;;;;;;4.69;30.36;101322.59;5062740;28;20048;-70
2023/04/06 04:34:25;;;;;;;8.80;6.13;;;;;;;4.67;30.38;101317.25;5066344;28;20418;-71
2023/04/06 04:36:54;;;;;;;9.25;6.45;;;;;;;4.68;30.58;101315.44;5083824;28;20052;-72
2023/04/06 04:39:33;;;;;;;10.15;6.20;;;;;;;4.65;30.41;101313.75;5064949;28;20040;-69
2023/04/06 04:42:05;;;;;;;8.65;6.45;;;;;;;4.64;30.41;101316.53;5064996;28;20530;-71
2023/04/06 04:44:35;;;;;;;11.48;6.75;;;;;;;4.65;30.25;101319.19;5081781;28;20020;-71
2023/04/06 04:47:04;;;;;;;11.05;6.97;;;;;;;4.64;30.39;101314.72;5062613;28;20051;-71
2023/04/06 04:49:41;;;;;;;9.98;6.07;;;;;;;4.65;30.40;101312.88;5066454;28;20047;-70
2023/04/06 04:52:12;;;;;;;8.50;5.97;;;;;;;4.65;30.42;101313.75;5054332;28;20044;-71
2023/04/06 04:54:52;;;;;;;9.20;6.80;;;;;;;4.61;30.37;101309.47;5066511;28;20094;-71
2023/04/06 04:57:25;;;;;;;9.60;6.88;;;;;;;4.60;30.52;101304.13;5064281;28;20068;-71
2023/04/06 04:59:53;;;;;;;9.95;6.68;;;;;;;4.60;30.69;101310.44;5087442;28;20035;-71
2023/04/06 05:02:25;;;;;;;8.65;6.47;;;;;;;4.59;30.60;101310.50;5063604;28;20044;-70
2023/04/06 05:05:12;;;;;;;10.05;6.15;;;;;;;4.56;30.67;101314.25;5080509;28;20089;-71
2023/04/06 05:07:42;;;;;;;8.90;6.05;;;;;;;4.57;30.60;101315.13;5068015;28;20422;-71
2023/04/06 05:10:18;;;;;;;10.35;6.38;;;;;;;4.55;30.63;101318.81;5064149;28;20048;-71
2023/04/06 05:12:53;;;;;;;10.30;6.32;;;;;;;4.57;30.65;101312.44;5095252;27;20036;-71
2023/04/06 05:15:21;;;;;;;10.05;6.35;;;;;;;4.58;30.71;101320.47;5092936;27;20121;-71
2023/04/06 05:17:53;;;;;;;11.10;6.43;;;;;;;4.57;30.78;101312.44;5057089;28;20231;-70
2023/04/06 05:20:28;;;;;;;8.45;6.05;;;;;;;4.57;30.62;101324.16;5050759;28;20337;-71
2023/04/06 05:22:58;;;;;;;9.80;6.32;;;;;;;4.61;30.76;101322.16;5056718;28;20052;-70
2023/04/06 05:25:26;;;;;;;9.95;6.80;;;;;;;4.58;31.08;101320.47;5066492;28;20051;-70
2023/04/06 05:27:57;;;;;;;11.40;6.60;;;;;;;4.59;30.95;101318.66;5066324;28;20475;-70
2023/04/06 05:30:31;;;;;;;10.20;6.55;;;;;;;4.59;30.87;101315.94;5058018;28;20044;-70
2023/04/06 05:33:00;;;;;;;9.90;6.78;;;;;;;4.60;30.82;101314.97;5084654;28;20075;-71
2023/04/06 05:35:34;;;;;;;9.25;6.50;;;;;;;4.60;31.05;101321.28;5065709;28;20036;-70
2023/04/06 05:38:11;;;;;;;10.75;5.97;;;;;;;4.63;31.10;101317.53;5075885;28;20124;-71
2023/04/06 05:40:40;;;;;;;9.52;5.93;;;;;;;4.63;31.21;101313.00;5062468;28;20056;-61
2023/04/06 05:43:12;;;;;;;8.85;5.72;;;;;;;4.65;31.00;101318.31;5060358;28;20483;-62
2023/04/06 05:45:45;;;;;;;10.23;5.82;;;;;;;4.70;31.17;101324.38;5066884;28;20243;-61
2023/04/06 05:48:13;;;;;;;8.15;5.70;;;;;;;4.73;31.42;101321.47;5066891;28;20035;-71
2023/04/06 05:50:41;;;;;;;8.30;5.60;;;;;;;4.79;31.25;101329.28;5067497;28;20089;-70
2023/04/06 05:53:14;;;;;;;9.30;5.75;;;;;;;4.85;31.40;101328.91;5064334;28;20067;-70
2023/04/06 05:55:50;;;;;;;9.10;6.05;;;;;;;4.89;31.36;101327.78;5063013;28;20048;-70
2023/04/06 05:58:20;;;;;;;9.18;5.57;;;;;;;4.97;31.34;101327.34;5076600;28;20475;-70
2023/04/06 06:00:51;;;;;;;9.77;6.15;;;;;;;5.02;30.93;101326.13;5058416;28;20056;-71
2023/04/06 06:03:22;;;;;;;8.57;5.65;;;;;;;5.09;31.15;101330.25;5049204;28;20056;-71
2023/04/06 06:05:54;;;;;;;8.30;5.43;;;;;;;5.15;30.90;101329.88;5061452;28;20059;-71
2023/04/06 06:08:32;;;;;;;8.27;5.88;;;;;;;5.22;30.80;101322.28;5053398;28;20105;-70
2023/04/06 06:11:03;;;;;;;8.73;5.90;;;;;;;5.26;30.87;101316.63;5061084;28;20408;-70
2023/04/06 06:13:31;;;;;;;9.95;5.72;;;;;;;5.35;30.92;101319.75;5063155;28;20461;-70
2023/04/06 06:16:04;;;;;;;8.82;6.55;;;;;;;5.41;30.90;101325.69;5063462;28;20048;-70
2023/04/06 06:18:36;;;;;;;9.10;5.72;;;;;;;5.49;31.09;101309.81;5066592;28;20480;-70
2023/04/06 06:21:05;;;;;;;9.82;6.40;;;;;;;5.58;30.71;101316.56;5060920;28;20048;-70
2023/04/06 06:23:35;;;;;;;8.07;5.65;;;;;;;5.68;30.90;101309.59;5065761;28;20079;-69
2023/04/06 06:26:04;;;;;;;10.05;6.00;;;;;;;5.79;30.81;101307.09;5064900;28;20047;-70
2023/04/06 06:28:32;;;;;;;9.35;6.43;;;;;;;5.89;30.70;101308.31;5061833;28;20180;-70
2023/04/06 06:31:00;;;;;;;8.18;5.47;;;;;;;6.02;30.61;101311.16;5081469;28;20032;-69
2023/04/06 06:33:30;;;;;;;7.53;6.22;;;;;;;6.11;30.62;101310.59;5055346;28;20044;-70
2023/04/06 06:35:59;;;;;;;9.68;6.28;;;;;;;6.22;30.53;101309.91;5054337;28;20043;-70
2023/04/06 06:38:27;;;;;;;9.45;6.22;;;;;;;6.36;30.15;101310.81;5085867;28;20055;-69
2023/04/06 06:40:57;;;;;;;8.77;6.22;;;;;;;6.51;30.17;101318.97;5065476;28;20177;-69
2023/04/06 06:43:28;;;;;;;8.85;5.90;;;;;;;6.58;30.13;101318.47;5047031;28;20047;-71
2023/04/06 06:46:00;;;;;;;7.50;5.73;;;;;;;6.72;29.87;101306.69;5072643;28;20132;-70
2023/04/06 06:48:28;;;;;;;7.75;5.78;;;;;;;6.87;29.82;101313.91;5081134;28;20044;-71
2023/04/06 06:50:57;;;;;;;8.30;6.03;;;;;;;7.03;30.13;101311.94;5083758;28;20402;-72
2023/04/06 06:53:25;;;;;;;8.32;5.30;;;;;;;7.14;29.62;101305.78;5064776;28;20059;-71
2023/04/06 06:55:53;;;;;;;8.32;5.80;;;;;;;7.24;29.89;101306.06;5081262;28;20044;-72
2023/04/06 06:58:22;;;;;;;8.55;5.95;;;;;;;7.40;29.61;101306.78;5067553;28;20055;-71
2023/04/06 07:00:50;;;;;;;8.15;5.30;;;;;;;7.52;29.53;101297.75;5063648;28;20458;-70
2023/04/06 07:03:19;;;;;;;8.05;6.03;;;;;;;7.68;29.79;101305.78;5068052;28;20391;-70
2023/04/06 07:05:52;;;;;;;8.88;6.13;;;;;;;7.87;30.13;101295.34;5078880;28;20135;-70
2023/04/06 07:08:21;;;;;;;8.27;5.43;;;;;;;8.13;30.11;101304.44;5067405;28;20048;-70
2023/04/06 07:10:53;;;;;;;11.32;6.05;;;;;;;8.43;29.74;101291.38;5080388;28;20127;-69
2023/04/06 07:13:23;;;;;;;8.60;6.18;;;;;;;8.69;29.39;101300.41;5078942;28;20048;-69
2023/04/06 07:15:54;;;;;;;8.77;5.80;;;;;;;8.98;29.82;101309.19;5059409;28;20142;-69
2023/04/06 07:18:23;;;;;;;8.70;6.20;;;;;;;9.30;29.58;101302.22;5055529;28;20068;-69
2023/04/06 07:20:51;;;;;;;7.68;5.50;;;;;;;9.62;29.34;101299.78;5046314;28;20047;-69
2023/04/06 07:23:20;;;;;;;8.65;5.90;;;;;;;9.96;29.64;101297.19;5060855;28;20055;-69
2023/04/06 07:25:50;;;;;;;7.93;5.80;;;;;;;10.29;29.03;101302.72;5075240;28;20113;-70
2023/04/06 07:28:18;;;;;;;7.85;5.55;;;;;;;10.62;28.62;101284.63;5085260;28;20504;-69
2023/04/06 07:30:48;;;;;;;8.05;5.57;;;;;;;10.94;28.02;101285.59;5053348;28;20048;-69
2023/04/06 07:33:16;;;;;;;8.77;5.47;;;;;;;11.20;27.63;101289.78;5061207;28;20062;-69
2023/04/06 07:35:45;;;;;;;7.90;6.05;;;;;;;11.40;26.85;101292.72;5061953;28;20518;-69
2023/04/06 07:38:13;;;;;;;7.93;5.82;;;;;;;11.55;26.31;101288.69;5076304;28;20041;-71
2023/04/06 07:40:42;;;;;;;9.50;6.10;;;;;;;11.64;26.57;101277.81;5062288;28;20384;-69
2023/04/06 07:43:10;;;;;;;8.15;5.63;;;;;;;11.72;26.40;101282.66;5085887;28;20047;-71
2023/04/06 07:45:38;;;;;;;7.47;5.90;;;;;;;11.79;26.22;101278.41;5061177;28;20040;-75
2023/04/06 07:48:08;;;;;;;7.45;5.80;;;;;;;11.88;25.94;101276.75;5060508;28;20076;-70
2023/04/06 07:50:37;;;;;;;8.02;5.78;;;;;;;11.90;25.63;101278.31;5064334;28;20058;-70
2023/04/06 07:53:06;;;;;;;9.98;6.85;;;;;;;11.94;25.10;101279.81;5061361;28;20226;-69
2023/04/06 07:55:35;;;;;;;8.52;5.97;;;;;;;11.97;25.33;101282.28;5063472;28;20059;-69
2023/04/06 07:58:03;;;;;;;7.78;5.85;;;;;;;11.98;24.83;101274.91;5084873;28;20046;-70
2023/04/06 08:00:31;;;;;;;7.70;5.63;;;;;;;11.96;24.73;101272.34;5063052;28;20044;-70
2023/04/06 08:02:59;;;;;;;8.15;5.90;;;;;;;11.95;25.06;101269.72;5081002;28;20120;-71
2023/04/06 08:05:29;;;;;;;8.27;5.95;;;;;;;11.94;24.26;101282.56;5080438;28;20553;-71
2023/04/06 08:07:57;;;;;;;8.45;6.10;;;;;;;11.85;24.16;101266.03;5062684;28;20075;-71
2023/04/06 08:10:25;;;;;;;8.70;5.85;;;;;;;11.83;24.45;101271.63;5058884;28;20057;-71
2023/04/06 08:12:53;;;;;;;8.02;5.80;;;;;;;11.79;25.06;101269.31;5074061;28;20036;-70
2023/04/06 08:15:21;;;;;;;7.53;5.60;;;;;;;11.77;24.60;101274.03;5047864;28;20090;-70
2023/04/06 08:17:49;;;;;;;8.00;5.72;;;;;;;11.74;25.07;101270.56;5083670;28;20048;-70
2023/04/06 08:20:18;;;;;;;7.75;5.20;;;;;;;11.73;24.73;101273.44;5086659;28;20040;-71
2023/04/06 08:22:47;;;;;;;8.07;5.82;;;;;;;11.73;24.96;101273.44;5087023;28;20032;-70
2023/04/06 08:25:17;;;;;;;7.15;5.65;;;;;;;11.70;24.66;101268.22;5061660;28;20519;-70
2023/04/06 08:27:45;;;;;;;8.52;5.53;;;;;;;11.69;24.57;101271.97;5083941;28;20052;-70
2023/04/06 08:30:14;;;;;;;8.35;5.88;;;;;;;11.69;24.85;101266.47;5081219;28;20048;-71
2023/04/06 08:32:42;;;;;;;9.05;5.40;;;;;;;11.69;25.14;101280.19;5080489;28;20071;-71
2023/04/06 08:35:10;;;;;;;8.65;5.97;;;;;;;11.70;25.14;101266.34;5083113;28;20479;-70
2023/04/06 08:37:39;;;;;;;8.80;5.93;;;;;;;11.72;25.06;101278.03;5085227;28;20048;-71
2023/04/06 08:40:09;;;;;;;8.43;5.60;;;;;;;11.77;25.25;101271.31;5069065;28;20241;-71
2023/04/06 08:42:41;;;;;;;9.50;5.97;;;;;;;11.79;24.49;101263.81;5086468;28;20074;-71
2023/04/06 08:45:10;;;;;;;7.97;5.37;;;;;;;11.79;25.04;101266.56;5084904;28;20040;-71
2023/04/06 08:47:38;;;;;;;9.50;5.78;;;;;;;11.84;25.11;101259.66;5076924;28;20302;-71
2023/04/06 08:50:08;;;;;;;9.82;6.90;;;;;;;11.89;25.20;101254.63;5085790;28;20078;-70
2023/04/06 08:52:37;;;;;;;10.32;6.60;;;;;;;11.93;25.30;101258.00;5083900;28;20048;-70
2023/04/06 08:55:06;;;;;;;8.70;6.32;;;;;;;11.98;25.33;101255.72;5085263;28;20052;-70
2023/04/06 08:57:37;;;;;;;11.07;7.18;;;;;;;12.03;24.57;101262.56;5084835;28;20102;-70
2023/04/06 09:00:07;;;;;;;11.68;7.47;;;;;;;12.09;24.73;101258.41;5085304;28;20552;-70
2023/04/06 09:02:37;;;;;;;11.18;7.22;;;;;;;12.11;24.63;101256.41;5060764;28;20384;-70
2023/04/06 09:05:05;;;;;;;11.45;7.50;;;;;;;12.15;25.10;101251.50;5079957;28;20048;-70
2023/04/06 09:07:36;;;;;;;11.88;7.68;;;;;;;12.19;25.01;101252.97;5083669;28;20507;-70
2023/04/06 09:10:05;;;;;;;10.18;7.70;;;;;;;12.21;24.46;101249.09;5089851;28;20048;-70
2023/04/06 09:12:35;;;;;;;10.98;6.93;;;;;;;12.24;24.64;101250.69;5085092;28;20082;-70
2023/04/06 09:15:04;;;;;;;10.23;6.95;;;;;;;12.25;24.83;101253.28;5067476;28;20040;-70
2023/04/06 09:17:33;;;;;;;14.50;7.22;;;;;;;12.26;24.58;101252.28;5082021;28;20055;-70
2023/04/06 09:20:02;;;;;;;11.60;7.32;;;;;;;12.27;24.40;101251.28;5063085;28;20372;-70
2023/04/06 09:22:36;;;;;;;10.52;6.95;;;;;;;12.31;24.24;101246.38;5062404;28;20048;-70
2023/04/06 09:25:06;;;;;;;10.35;6.72;;;;;;;12.30;24.37;101250.13;5068433;28;20075;-71
2023/04/06 09:27:37;;;;;;;10.57;6.88;;;;;;;12.31;24.44;101246.38;5084902;28;20047;-70
2023/04/06 09:30:07;;;;;;;9.75;6.18;;;;;;;12.32;24.65;101248.13;5085427;28;20541;-70
2023/04/06 09:32:46;;;;;;;10.23;6.68;;;;;;;12.34;24.40;101246.13;5059762;28;20527;-70
2023/04/06 09:35:15;;;;;;;10.30;6.80;;;;;;;12.32;24.44;101242.63;5085287;28;20056;-70
2023/04/06 09:37:43;;;;;;;10.43;6.78;;;;;;;12.31;24.56;101236.28;5082873;28;20028;-70
2023/04/06 09:40:13;;;;;;;10.30;7.13;;;;;;;12.30;24.45;101236.41;5090639;28;20051;-70
2023/04/06 09:42:43;;;;;;;11.77;6.40;;;;;;;12.31;24.36;101239.03;5066836;28;20067;-70
2023/04/06 09:45:11;;;;;;;10.48;6.65;;;;;;;12.29;24.42;101231.97;5082763;28;20037;-70
2023/04/06 09:47:44;;;;;;;12.35;7.40;;;;;;;12.29;23.69;101232.81;5084932;28;20048;-70
2023/04/06 09:50:16;;;;;;;11.63;7.45;;;;;;;12.29;24.33;101231.97;5067779;28;20044;-70
2023/04/06 09:52:49;;;;;;;12.23;7.97;;;;;;;12.29;24.21;101223.72;5085461;28;20071;-70
2023/04/06 09:55:26;;;;;;;12.48;7.13;;;;;;;12.32;24.49;101226.19;5073588;28;20044;-70
2023/04/06 09:58:04;;;;;;;12.65;7.32;;;;;;;12.34;24.49;101225.03;5079889;28;20491;-70
2023/04/06 10:00:35;;;;;;;13.35;7.88;;;;;;;12.36;24.48;101222.16;5076438;28;20070;-70
2023/04/06 10:03:15;;;;;;;12.43;8.02;;;;;;;12.43;24.74;101220.59;5079579;28;20528;-69
2023/04/06 10:05:51;;;;;;;12.05;7.50;;;;;;;12.47;24.92;101220.19;5083586;28;20123;-69
2023/04/06 10:08:21;;;;;;;12.80;8.32;;;;;;;12.54;24.78;101217.78;5067959;28;20083;-69
2023/04/06 10:10:52;;;;;;;17.20;8.20;;;;;;;12.63;24.68;101227.06;5084773;28;20445;-70
2023/04/06 10:13:22;;;;;;;11.93;8.15;;;;;;;12.69;24.86;101221.03;5083111;28;20040;-69
2023/04/06 10:15:51;;;;;;;11.93;7.65;;;;;;;12.74;24.43;101219.59;5064961;28;20335;-70
2023/04/06 10:18:20;;;;;;;12.63;7.57;;;;;;;12.82;24.96;101228.00;5068864;28;20063;-69
2023/04/06 10:20:54;;;;;;;11.88;7.85;;;;;;;12.91;24.84;101229.03;5077152;28;20499;-69
2023/04/06 10:23:30;;;;;;;12.15;7.95;;;;;;;12.99;24.18;101231.09;5077175;28;20086;-69
2023/04/06 10:26:00;;;;;;;11.45;7.13;;;;;;;13.06;24.88;101229.50;5064997;28;20056;-69
2023/04/06 10:31:25;;;;;;;13.30;8.13;;;;;;;13.22;24.04;101241.69;5064133;28;20059;-70
2023/04/06 10:33:58;;;;;;;10.50;7.00;;;;;;;13.27;24.08;101230.28;5049518;28;20052;-69
2023/04/06 10:36:27;;;;;;;10.67;7.33;;;;;;;13.29;24.22;101233.72;5066019;28;20123;-66
2023/04/06 10:38:57;;;;;;;11.55;7.25;;;;;;;13.34;24.25;101227.81;5048592;28;20380;-67
2023/04/06 10:41:33;;;;;;;10.77;7.28;;;;;;;13.38;24.38;101224.63;5042212;28;20768;-67
2023/04/06 10:44:02;;;;;;;11.48;7.07;;;;;;;13.38;24.49;101224.63;5047396;28;20071;-68
2023/04/06 10:46:32;;;;;;;11.80;7.35;;;;;;;13.43;24.55;101225.09;5046789;28;20420;-69
2023/04/06 10:49:11;;;;;;;11.57;7.40;;;;;;;13.45;24.33;101223.03;5047586;28;20061;-67
2023/04/06 10:51:40;;;;;;;10.63;7.40;;;;;;;13.47;24.64;101217.41;5060066;28;20044;-61
2023/04/06 10:54:08;;;;;;;10.18;7.00;;;;;;;13.50;24.66;101209.75;5052169;28;20041;-68
2023/04/06 10:56:38;;;;;;;11.13;7.57;;;;;;;13.54;24.78;101200.16;5063308;28;20049;-67
2023/04/06 10:59:07;;;;;;;11.38;7.90;;;;;;;13.57;24.46;101210.91;5057071;28;20068;-67
2023/04/06 11:01:36;;;;;;;12.55;8.15;;;;;;;13.61;24.83;101206.84;5052193;28;20056;-67
2023/04/06 11:04:05;;;;;;;10.30;7.38;;;;;;;13.65;24.32;101204.69;5067593;28;20681;-67
2023/04/06 11:06:33;;;;;;;12.40;7.90;;;;;;;13.70;24.52;101210.59;5044122;28;20443;-67
2023/04/06 11:09:01;;;;;;;10.77;6.97;;;;;;;13.75;24.52;101201.94;5059739;28;20523;-67
2023/04/06 11:11:29;;;;;;;11.68;7.65;;;;;;;13.79;24.28;101209.72;5048225;28;20523;-70
2023/04/06 11:13:58;;;;;;;11.73;8.07;;;;;;;13.85;24.43;101205.56;5067338;28;20041;-69
2023/04/06 11:16:28;;;;;;;10.75;7.10;;;;;;;13.90;24.26;101209.59;5064471;28;20043;-67
2023/04/06 11:18:59;;;;;;;11.05;7.20;;;;;;;13.94;24.24;101204.66;5049401;28;20052;-67
2023/04/06 11:21:35;;;;;;;11.85;7.85;;;;;;;13.98;24.48;101209.72;5066156;28;20139;-67
2023/04/06 11:24:11;;;;;;;11.18;7.28;;;;;;;14.02;24.27;101204.78;5080698;28;20265;-67
2023/04/06 11:26:40;;;;;;;11.38;7.35;;;;;;;14.02;24.44;101207.53;5065263;28;20132;-67
2023/04/06 11:29:09;;;;;;;13.00;7.28;;;;;;;14.04;24.68;101199.09;5066347;28;20074;-67
2023/04/06 11:31:42;;;;;;;11.18;7.38;;;;;;;14.08;24.21;101192.31;5065476;28;20056;-67
2023/04/06 11:34:13;;;;;;;10.95;7.68;;;;;;;14.06;23.99;101203.47;5067161;28;20044;-67
2023/04/06 11:36:42;;;;;;;11.00;7.57;;;;;;;14.07;24.55;101199.69;5062193;28;20057;-67
2023/04/06 11:39:11;;;;;;;12.85;7.65;;;;;;;14.07;24.42;101202.44;5067201;28;20036;-67
2023/04/06 11:41:39;;;;;;;11.65;7.15;;;;;;;14.06;24.23;101195.19;5078798;28;20079;-67
2023/04/06 11:44:07;;;;;;;11.80;6.95;;;;;;;14.05;24.25;101187.97;5045034;28;20519;-67